Time;durP1;ratioP1;P1;durP2;ratioP2;P2;SDS_P1;SDS_P2;PMS_P1;PMS_P2;Temp;Humidity;BMP_temperature;BMP_pressure;BME280_temperature;BME280_humidity;BME280_pressure;Samples;Min_cycle;Max_cycle;Signal;HPM_P1;HPM_P2
2022/07/19 00:00:11;;;;;;;2.37;2.17;;;25.70;20.10;;;;;;5077906;28;20464;-79
2022/07/19 00:02:40;;;;;;;2.77;2.57;;;25.70;18.70;;;;;;5083017;28;20487;-79
2022/07/19 00:05:09;;;;;;;3.57;2.50;;;25.70;20.00;;;;;;5085819;28;20556;-80
2022/07/19 00:07:38;;;;;;;3.37;2.10;;;25.70;19.40;;;;;;5080773;28;20457;-79
2022/07/19 00:10:10;;;;;;;2.43;2.23;;;25.70;20.70;;;;;;5081928;28;20437;-79
2022/07/19 00:12:39;;;;;;;2.30;2.10;;;25.60;19.90;;;;;;5080575;28;20451;-78
2022/07/19 00:15:09;;;;;;;2.43;2.23;;;25.60;18.80;;;;;;5079679;28;20489;-79
2022/07/19 00:17:41;;;;;;;2.93;2.10;;;25.50;19.10;;;;;;5080371;28;20449;-79
2022/07/19 00:20:10;;;;;;;2.63;2.43;;;25.50;18.30;;;;;;5081039;28;20453;-79
2022/07/19 00:22:39;;;;;;;2.03;1.90;;;25.50;18.80;;;;;;5080416;28;20457;-79
2022/07/19 00:25:09;;;;;;;3.40;2.10;;;25.50;18.30;;;;;;5078999;28;20528;-79
2022/07/19 00:27:37;;;;;;;4.03;1.73;;;25.40;18.50;;;;;;5073647;28;20454;-79
2022/07/19 00:30:07;;;;;;;2.27;2.07;;;25.40;19.20;;;;;;5080138;28;20473;-79
2022/07/19 00:32:35;;;;;;;2.00;1.90;;;25.40;18.10;;;;;;5081492;28;20463;-78
2022/07/19 00:35:03;;;;;;;2.07;1.80;;;25.40;19.50;;;;;;5080528;28;21105;-79
2022/07/19 00:37:31;;;;;;;2.30;2.10;;;25.30;20.60;;;;;;5078585;28;20455;-80
2022/07/19 00:40:00;;;;;;;4.43;2.47;;;25.30;19.20;;;;;;5079238;28;20450;-79
2022/07/19 00:42:29;;;;;;;2.43;2.20;;;25.30;20.40;;;;;;5080055;28;20455;-80
2022/07/19 00:44:57;;;;;;;2.63;2.43;;;25.30;19.20;;;;;;5079917;28;20476;-79
2022/07/19 00:47:25;;;;;;;3.30;3.00;;;25.20;19.30;;;;;;5077010;28;20503;-79
2022/07/19 00:49:54;;;;;;;2.00;1.87;;;25.20;19.70;;;;;;5082837;28;20454;-79
2022/07/19 00:52:23;;;;;;;9.23;2.17;;;25.20;19.40;;;;;;5079291;28;20954;-81
2022/07/19 00:54:54;;;;;;;2.00;1.90;;;25.20;18.90;;;;;;5082432;28;20481;-80
2022/07/19 00:57:25;;;;;;;2.00;1.87;;;25.50;19.80;;;;;;5079693;28;20450;-79
2022/07/19 00:59:55;;;;;;;3.03;2.40;;;25.10;18.60;;;;;;5082162;28;20984;-79
2022/07/19 01:02:24;;;;;;;2.43;2.00;;;25.10;18.90;;;;;;5078374;28;20493;-79
2022/07/19 01:04:52;;;;;;;3.13;2.60;;;25.00;18.80;;;;;;5077706;28;20485;-79
2022/07/19 01:07:24;;;;;;;2.33;2.13;;;25.00;19.40;;;;;;5077722;28;20525;-80
2022/07/19 01:09:52;;;;;;;2.03;1.93;;;25.00;20.20;;;;;;5079668;28;20451;-80
2022/07/19 01:12:22;;;;;;;4.30;2.17;;;25.00;19.50;;;;;;5079777;28;20449;-79
2022/07/19 01:14:51;;;;;;;2.20;2.00;;;25.00;19.00;;;;;;5082838;28;20481;-81
2022/07/19 01:17:20;;;;;;;4.97;2.40;;;24.90;18.10;;;;;;5082871;28;20540;-80
2022/07/19 01:19:48;;;;;;;2.67;2.20;;;24.90;19.60;;;;;;5086395;28;20480;-80
2022/07/19 01:22:18;;;;;;;2.53;2.33;;;24.90;19.60;;;;;;5081031;28;20839;-80
2022/07/19 01:24:46;;;;;;;2.30;2.10;;;24.80;18.90;;;;;;5084692;28;21220;-79
2022/07/19 01:27:14;;;;;;;3.50;2.37;;;24.80;18.90;;;;;;5082157;28;20472;-80
2022/07/19 01:29:42;;;;;;;2.60;2.40;;;24.80;18.90;;;;;;5082245;28;20921;-80
2022/07/19 01:32:11;;;;;;;2.73;2.50;;;24.70;19.00;;;;;;5082868;28;20454;-79
2022/07/19 01:34:39;;;;;;;2.37;2.17;;;24.70;19.00;;;;;;5082710;28;20489;-80
2022/07/19 01:37:07;;;;;;;2.17;2.07;;;24.70;19.20;;;;;;5078149;28;20519;-80
2022/07/19 01:39:36;;;;;;;2.97;2.20;;;24.70;19.40;;;;;;5082827;28;20461;-80
2022/07/19 01:42:05;;;;;;;2.00;1.90;;;24.70;19.30;;;;;;5080640;28;20450;-80
2022/07/19 01:44:33;;;;;;;2.50;2.30;;;24.70;18.80;;;;;;5081186;28;20500;-79
2022/07/19 01:47:01;;;;;;;2.70;1.83;;;24.60;20.00;;;;;;5083949;28;20480;-79
2022/07/19 01:49:29;;;;;;;2.00;1.90;;;24.60;19.20;;;;;;5083196;28;20457;-79
2022/07/19 01:51:57;;;;;;;2.10;1.97;;;24.60;18.70;;;;;;5080751;28;20559;-79
2022/07/19 01:54:26;;;;;;;2.10;2.00;;;24.50;19.50;;;;;;5082283;28;20493;-79
2022/07/19 01:56:55;;;;;;;2.40;2.30;;;24.50;19.10;;;;;;5081130;28;20464;-79
2022/07/19 01:59:23;;;;;;;2.47;2.27;;;24.50;19.40;;;;;;5081384;28;20526;-79
2022/07/19 02:01:52;;;;;;;2.10;1.90;;;24.40;19.00;;;;;;5082446;28;20445;-79
2022/07/19 02:04:20;;;;;;;2.77;2.57;;;24.40;19.20;;;;;;5078500;28;20450;-79
2022/07/19 02:06:49;;;;;;;1.90;1.80;;;24.40;19.10;;;;;;5083091;28;20444;-79
2022/07/19 02:09:17;;;;;;;2.10;1.70;;;24.40;19.40;;;;;;5082985;28;20457;-79
2022/07/19 02:11:46;;;;;;;2.37;2.20;;;24.40;20.30;;;;;;5083518;28;20511;-79
2022/07/19 02:14:15;;;;;;;2.13;2.03;;;24.40;18.30;;;;;;5081747;28;20461;-80
2022/07/19 02:16:43;;;;;;;1.87;1.77;;;24.30;17.60;;;;;;5079510;28;20483;-81
2022/07/19 02:19:12;;;;;;;3.13;2.23;;;24.20;17.50;;;;;;5083332;28;20526;-80
2022/07/19 02:21:40;;;;;;;2.67;2.47;;;24.20;17.90;;;;;;5080591;28;20465;-81
2022/07/19 02:24:09;;;;;;;2.50;2.33;;;24.20;17.30;;;;;;5083391;28;20453;-80
2022/07/19 02:26:37;;;;;;;2.57;2.10;;;24.10;17.80;;;;;;5078989;28;20454;-80
2022/07/19 02:29:06;;;;;;;2.63;2.43;;;24.20;18.10;;;;;;5081937;28;20523;-79
2022/07/19 02:31:36;;;;;;;1.83;1.73;;;24.10;16.20;;;;;;5079240;28;20466;-78
2022/07/19 02:34:05;;;;;;;2.33;2.00;;;24.10;18.20;;;;;;5080524;28;20468;-77
2022/07/19 02:36:33;;;;;;;2.70;2.47;;;24.10;17.30;;;;;;5078600;28;20500;-78
2022/07/19 02:39:01;;;;;;;2.33;2.00;;;24.00;16.50;;;;;;5084937;28;20461;-77
2022/07/19 02:41:31;;;;;;;2.67;2.07;;;24.10;17.80;;;;;;5080241;28;20531;-78
2022/07/19 02:44:00;;;;;;;3.00;2.50;;;24.10;18.50;;;;;;5080773;28;20468;-78
2022/07/19 02:46:28;;;;;;;2.60;2.23;;;24.10;18.80;;;;;;5081774;28;20464;-79
2022/07/19 02:48:57;;;;;;;2.10;2.00;;;24.10;18.00;;;;;;5080979;28;20458;-77
2022/07/19 02:51:26;;;;;;;2.37;2.20;;;24.10;19.10;;;;;;5078654;28;20458;-78
2022/07/19 02:53:54;;;;;;;1.83;1.73;;;24.00;29.80;;;;;;5079923;28;20470;-78
2022/07/19 02:56:22;;;;;;;3.30;2.00;;;24.00;18.00;;;;;;5081225;28;20864;-78
2022/07/19 02:58:50;;;;;;;2.30;2.10;;;24.00;19.70;;;;;;5082637;28;20499;-78
2022/07/19 03:01:18;;;;;;;2.53;2.30;;;24.00;18.20;;;;;;5081452;28;21162;-78
2022/07/19 03:03:47;;;;;;;2.63;2.43;;;23.90;18.10;;;;;;5081326;28;20993;-77
2022/07/19 03:06:19;;;;;;;2.10;2.00;;;23.90;17.80;;;;;;5076384;28;20497;-79
2022/07/19 03:08:47;;;;;;;2.07;1.90;;;23.90;17.40;;;;;;5082445;28;20454;-77
2022/07/19 03:11:16;;;;;;;2.07;1.87;;;23.90;19.30;;;;;;5081478;28;21143;-78
2022/07/19 03:13:44;;;;;;;3.50;3.20;;;23.80;19.60;;;;;;5080865;28;20465;-78
2022/07/19 03:16:12;;;;;;;2.37;2.27;;;23.80;18.60;;;;;;5081879;28;20481;-78
2022/07/19 03:18:40;;;;;;;2.47;2.00;;;23.90;19.10;;;;;;5078377;28;20550;-78
2022/07/19 03:21:09;;;;;;;2.70;2.50;;;23.80;18.50;;;;;;5082189;28;20450;-77
2022/07/19 03:23:39;;;;;;;2.87;2.30;;;23.70;17.50;;;;;;5080862;28;20784;-78
2022/07/19 03:26:07;;;;;;;2.73;2.53;;;23.70;16.70;;;;;;5080576;28;20895;-77
2022/07/19 03:28:35;;;;;;;4.10;2.40;;;23.70;17.90;;;;;;5082716;28;20503;-77
2022/07/19 03:31:04;;;;;;;2.60;2.40;;;23.70;17.50;;;;;;5081542;28;20531;-77
2022/07/19 03:33:32;;;;;;;2.57;2.37;;;23.60;17.20;;;;;;5079960;28;20469;-77
2022/07/19 03:36:00;;;;;;;2.50;2.30;;;23.70;17.50;;;;;;5079235;28;21655;-77
2022/07/19 03:38:28;;;;;;;3.23;3.00;;;23.60;18.30;;;;;;5079653;28;21039;-77
2022/07/19 03:40:58;;;;;;;3.10;2.03;;;23.60;18.40;;;;;;5080512;28;20469;-77
2022/07/19 03:43:26;;;;;;;2.43;2.23;;;23.60;18.40;;;;;;5080831;28;20458;-78
2022/07/19 03:45:54;;;;;;;3.00;2.13;;;23.60;17.70;;;;;;5083737;28;21290;-78
2022/07/19 03:48:22;;;;;;;2.80;2.37;;;23.60;18.00;;;;;;5080889;28;20448;-78
2022/07/19 03:50:50;;;;;;;2.53;2.33;;;23.60;18.40;;;;;;5081147;28;20462;-78
2022/07/19 03:53:19;;;;;;;2.23;2.03;;;23.60;18.00;;;;;;5080237;28;20441;-78
2022/07/19 03:55:47;;;;;;;2.27;1.70;;;23.50;19.00;;;;;;5080537;28;20487;-78
2022/07/19 03:58:16;;;;;;;2.90;2.60;;;23.50;18.00;;;;;;5082341;28;20459;-78
2022/07/19 04:00:45;;;;;;;2.67;2.50;;;23.50;17.50;;;;;;5073037;28;20457;-78
2022/07/19 04:03:13;;;;;;;3.93;2.40;;;23.50;17.20;;;;;;5083744;28;20818;-78
2022/07/19 04:05:42;;;;;;;2.27;2.17;;;23.40;16.40;;;;;;5077662;28;20503;-78
2022/07/19 04:08:10;;;;;;;3.47;2.13;;;23.40;17.20;;;;;;5081629;28;20457;-79
2022/07/19 04:10:38;;;;;;;3.40;3.10;;;23.40;17.90;;;;;;5075020;28;20449;-77
2022/07/19 04:13:07;;;;;;;2.70;1.97;;;23.40;18.30;;;;;;5081823;28;20457;-79
2022/07/19 04:15:36;;;;;;;2.03;1.90;;;23.40;16.80;;;;;;5079257;28;20470;-79
2022/07/19 04:18:13;;;;;;;2.37;2.00;;;23.40;16.80;;;;;;5079166;28;20464;-80
2022/07/19 04:20:41;;;;;;;2.27;2.17;;;23.40;18.90;;;;;;5079966;28;20457;-81
2022/07/19 04:23:09;;;;;;;2.37;2.00;;;23.40;17.70;;;;;;5081892;28;20449;-81
2022/07/19 04:25:37;;;;;;;2.53;2.10;;;23.40;18.00;;;;;;5079357;28;20465;-81
2022/07/19 04:28:07;;;;;;;3.60;2.20;;;23.30;18.10;;;;;;5081236;28;20528;-82
2022/07/19 04:30:36;;;;;;;3.10;2.10;;;23.40;18.50;;;;;;5078730;28;20560;-81
2022/07/19 04:33:05;;;;;;;2.10;2.00;;;23.30;18.30;;;;;;5080714;28;20464;-81
2022/07/19 04:35:33;;;;;;;2.70;2.50;;;23.30;19.40;;;;;;5084513;28;21005;-82
2022/07/19 04:38:01;;;;;;;2.37;1.90;;;23.30;19.90;;;;;;5087557;28;20460;-83
2022/07/19 04:40:29;;;;;;;2.33;2.10;;;23.30;18.70;;;;;;5085236;28;20852;-84
2022/07/19 04:42:57;;;;;;;1.93;1.80;;;23.20;18.70;;;;;;5081292;28;20892;-80
2022/07/19 04:45:26;;;;;;;2.90;2.00;;;23.10;29.20;;;;;;5083933;28;20870;-84
2022/07/19 04:47:55;;;;;;;2.13;2.03;;;23.10;18.00;;;;;;5083848;28;20450;-82
2022/07/19 04:50:23;;;;;;;3.50;3.20;;;23.00;18.20;;;;;;5088217;28;20461;-83
2022/07/19 04:52:52;;;;;;;3.03;2.83;;;23.00;19.40;;;;;;5091494;28;20460;-84
2022/07/19 04:55:20;;;;;;;5.00;3.27;;;23.10;18.70;;;;;;5092506;28;20483;-84
2022/07/19 04:57:48;;;;;;;2.73;2.53;;;23.10;19.70;;;;;;5089629;28;20494;-85
2022/07/19 05:00:16;;;;;;;3.40;2.70;;;23.10;19.40;;;;;;5098769;27;20476;-82
2022/07/19 05:02:45;;;;;;;3.33;2.60;;;23.20;20.10;;;;;;5082194;28;20454;-84
2022/07/19 05:05:15;;;;;;;2.37;2.17;;;23.30;20.60;;;;;;5091867;28;20541;-85
2022/07/19 05:07:44;;;;;;;2.67;2.50;;;23.20;20.20;;;;;;5085371;28;20453;-84
2022/07/19 05:10:12;;;;;;;4.83;2.80;;;23.30;21.50;;;;;;5094895;28;20468;-84
2022/07/19 05:12:41;;;;;;;4.43;3.70;;;23.30;20.40;;;;;;5090424;28;20512;-84
2022/07/19 05:15:10;;;;;;;3.20;2.90;;;23.30;19.20;;;;;;5088595;28;20480;-83
2022/07/19 05:17:43;;;;;;;2.60;2.40;;;23.40;19.80;;;;;;5086766;28;20933;-85
2022/07/19 05:20:13;;;;;;;5.13;2.87;;;23.50;22.10;;;;;;5088409;28;20464;-80
2022/07/19 05:22:43;;;;;;;3.73;2.77;;;23.50;21.70;;;;;;5085365;28;20540;-79
2022/07/19 05:25:16;;;;;;;2.87;2.67;;;23.60;22.30;;;;;;5088541;28;20484;-79
2022/07/19 05:27:44;;;;;;;3.50;2.93;;;23.70;34.90;;;;;;5082912;28;20449;-79
2022/07/19 05:30:13;;;;;;;4.13;3.17;;;23.70;24.00;;;;;;5087102;28;20449;-79
2022/07/19 05:32:41;;;;;;;3.50;2.50;;;23.80;24.90;;;;;;5084367;28;20480;-79
2022/07/19 05:35:10;;;;;;;2.80;2.50;;;23.80;24.90;;;;;;5084433;28;20531;-79
2022/07/19 05:37:38;;;;;;;3.20;2.90;;;23.90;24.10;;;;;;5084392;28;20838;-79
2022/07/19 05:40:09;;;;;;;3.93;2.77;;;23.90;24.60;;;;;;5083535;28;20458;-80
2022/07/19 05:42:37;;;;;;;3.03;2.43;;;23.90;23.90;;;;;;5076341;28;20456;-78
2022/07/19 05:45:06;;;;;;;2.70;2.50;;;23.90;24.30;;;;;;5083137;28;20473;-81
2022/07/19 05:47:34;;;;;;;3.37;2.67;;;24.00;24.80;;;;;;5070686;28;20453;-80
2022/07/19 05:50:03;;;;;;;3.70;3.10;;;24.00;26.80;;;;;;5080242;28;20459;-80
2022/07/19 05:52:31;;;;;;;2.60;2.40;;;24.00;25.60;;;;;;5077891;28;20449;-80
2022/07/19 05:55:06;;;;;;;6.33;3.13;;;24.10;27.20;;;;;;5079721;28;20466;-79
2022/07/19 05:57:35;;;;;;;5.03;2.80;;;24.20;25.80;;;;;;5073862;28;20477;-79
2022/07/19 06:00:05;;;;;;;2.73;2.20;;;24.20;28.90;;;;;;5079660;28;20496;-79
2022/07/19 06:02:33;;;;;;;3.13;2.83;;;24.30;27.70;;;;;;5075018;28;20446;-80
2022/07/19 06:05:02;;;;;;;5.20;2.40;;;24.30;30.40;;;;;;5081699;28;20473;-79
2022/07/19 06:07:30;;;;;;;7.50;2.60;;;24.40;43.30;;;;;;5079676;28;20879;-80
2022/07/19 06:09:58;;;;;;;3.80;2.40;;;24.40;30.50;;;;;;5078322;28;20604;-79
2022/07/19 06:12:27;;;;;;;5.50;2.80;;;24.50;30.90;;;;;;5081089;28;20461;-78
2022/07/19 06:14:56;;;;;;;3.13;2.70;;;24.50;32.40;;;;;;5079363;28;20474;-79
2022/07/19 06:17:24;;;;;;;6.80;2.60;;;24.50;31.50;;;;;;5082207;28;20945;-78
2022/07/19 06:19:52;;;;;;;5.17;2.00;;;24.50;30.80;;;;;;5081862;28;20454;-79
2022/07/19 06:22:21;;;;;;;3.63;2.40;;;24.60;32.40;;;;;;5084771;28;20457;-80
2022/07/19 06:24:50;;;;;;;2.27;2.07;;;24.60;31.10;;;;;;5075971;28;20470;-80
2022/07/19 06:27:18;;;;;;;2.77;2.23;;;24.70;31.90;;;;;;5081656;28;20450;-79
2022/07/19 06:29:46;;;;;;;2.63;2.30;;;24.80;32.80;;;;;;5084444;28;20462;-80
2022/07/19 06:32:16;;;;;;;3.67;1.80;;;24.80;32.90;;;;;;5085109;28;20460;-79
2022/07/19 06:34:44;;;;;;;1.77;1.63;;;24.90;29.50;;;;;;5080689;28;20949;-79
2022/07/19 06:37:12;;;;;;;1.30;1.20;;;24.90;28.40;;;;;;5082057;28;20868;-79
2022/07/19 06:39:40;;;;;;;1.63;1.27;;;24.90;26.80;;;;;;5078584;28;20443;-79
2022/07/19 06:42:08;;;;;;;1.33;1.23;;;24.90;25.30;;;;;;5080988;28;20450;-80
2022/07/19 06:44:36;;;;;;;1.77;1.60;;;25.00;27.10;;;;;;5081488;28;20544;-79
2022/07/19 06:47:04;;;;;;;2.17;1.50;;;25.10;26.40;;;;;;5080248;28;20445;-79
2022/07/19 06:49:34;;;;;;;2.00;1.60;;;25.20;27.20;;;;;;5078026;28;20450;-79
2022/07/19 06:52:02;;;;;;;1.30;1.20;;;25.30;27.50;;;;;;5079316;28;20458;-81
2022/07/19 06:54:30;;;;;;;1.60;1.50;;;25.30;27.40;;;;;;5077828;28;20534;-80
2022/07/19 06:56:59;;;;;;;3.00;1.50;;;25.30;26.30;;;;;;5082046;28;20451;-80
2022/07/19 06:59:27;;;;;;;1.50;1.40;;;25.40;27.10;;;;;;5080879;28;20473;-80
2022/07/19 07:01:55;;;;;;;1.30;1.20;;;25.50;30.10;;;;;;5082231;28;20442;-79
2022/07/19 07:04:23;;;;;;;1.77;1.60;;;25.70;30.70;;;;;;5075916;28;20836;-80
2022/07/19 07:07:03;;;;;;;1.60;1.20;;;25.80;46.00;;;;;;5081592;28;20518;-80
2022/07/19 07:09:32;;;;;;;2.67;1.27;;;25.90;31.60;;;;;;5080481;28;20454;-79
2022/07/19 07:12:00;;;;;;;1.30;1.20;;;26.10;32.50;;;;;;5080450;28;20446;-79
2022/07/19 07:14:28;;;;;;;1.50;1.40;;;26.20;31.10;;;;;;5076963;28;20482;-80
2022/07/19 07:16:56;;;;;;;2.23;1.40;;;26.30;32.00;;;;;;5078514;28;20535;-79
2022/07/19 07:19:24;;;;;;;1.40;1.30;;;26.30;31.80;;;;;;5077221;28;21058;-80
2022/07/19 07:21:52;;;;;;;1.40;1.30;;;26.40;31.40;;;;;;5082987;28;20451;-80
2022/07/19 07:24:22;;;;;;;1.57;1.47;;;26.50;32.90;;;;;;5075823;28;20457;-79
2022/07/19 07:26:51;;;;;;;1.80;1.70;;;26.50;32.90;;;;;;5073916;28;20553;-79
2022/07/19 07:29:19;;;;;;;1.50;1.40;;;26.60;32.40;;;;;;5075030;28;20450;-80
2022/07/19 07:31:47;;;;;;;1.90;1.60;;;26.60;32.50;;;;;;5077287;28;20457;-79
2022/07/19 07:34:16;;;;;;;4.70;1.50;;;26.60;33.30;;;;;;5077691;28;20453;-79
2022/07/19 07:36:44;;;;;;;1.30;1.20;;;26.70;33.20;;;;;;5072525;28;20447;-80
2022/07/19 07:39:13;;;;;;;2.03;1.23;;;26.70;34.20;;;;;;5075410;28;20470;-79
2022/07/19 07:41:43;;;;;;;1.47;1.23;;;26.80;33.90;;;;;;5075341;28;20463;-81
2022/07/19 07:44:22;;;;;;;1.43;1.33;;;26.80;35.30;;;;;;5077636;28;20442;-80
2022/07/19 07:46:51;;;;;;;2.23;1.80;;;26.90;35.10;;;;;;5075981;28;20473;-80
2022/07/19 07:49:19;;;;;;;1.70;1.60;;;26.90;33.60;;;;;;5077261;28;20794;-80
2022/07/19 07:51:47;;;;;;;1.30;1.10;;;26.90;36.20;;;;;;5075737;28;20501;-80
2022/07/19 07:54:15;;;;;;;1.60;1.33;;;27.00;35.10;;;;;;5077128;28;20562;-79
2022/07/19 07:56:45;;;;;;;1.40;1.30;;;27.00;33.70;;;;;;5078665;28;20541;-80
2022/07/19 07:59:14;;;;;;;1.37;1.27;;;27.00;35.70;;;;;;5072691;28;20477;-80
2022/07/19 08:01:43;;;;;;;1.70;1.30;;;27.00;34.90;;;;;;5075693;28;20457;-80
2022/07/19 08:04:11;;;;;;;1.67;1.37;;;27.10;35.80;;;;;;5076011;28;20487;-80
2022/07/19 08:06:40;;;;;;;1.20;1.10;;;27.10;36.50;;;;;;5075034;28;20462;-81
2022/07/19 08:09:08;;;;;;;1.33;1.23;;;27.10;34.70;;;;;;5076319;28;20442;-80
2022/07/19 08:11:36;;;;;;;1.30;1.20;;;27.10;35.60;;;;;;5076066;28;20450;-81
2022/07/19 08:14:06;;;;;;;1.50;1.40;;;27.20;37.20;;;;;;5080365;28;20861;-80
2022/07/19 08:16:34;;;;;;;1.40;1.30;;;27.20;35.90;;;;;;5075681;28;20469;-80
2022/07/19 08:19:03;;;;;;;1.37;1.27;;;27.20;35.20;;;;;;5079998;28;20501;-80
2022/07/19 08:21:32;;;;;;;1.50;1.40;;;27.30;35.00;;;;;;5074128;28;20934;-80
2022/07/19 08:24:00;;;;;;;1.50;1.40;;;27.30;34.10;;;;;;5076476;28;20454;-79
2022/07/19 08:26:30;;;;;;;2.20;1.50;;;27.30;35.30;;;;;;5077306;28;20473;-80
2022/07/19 08:28:58;;;;;;;2.77;1.40;;;27.40;35.60;;;;;;5079745;28;20464;-80
2022/07/19 08:31:27;;;;;;;1.53;1.43;;;27.40;36.00;;;;;;5077611;28;20457;-80
2022/07/19 08:33:55;;;;;;;3.37;1.57;;;27.50;37.50;;;;;;5080877;28;20455;-80
2022/07/19 08:36:25;;;;;;;3.90;1.60;;;27.50;36.20;;;;;;5083555;28;20477;-80
2022/07/19 08:38:53;;;;;;;1.40;1.30;;;27.50;37.10;;;;;;5080476;28;20806;-81
2022/07/19 08:41:22;;;;;;;1.70;1.50;;;27.60;38.00;;;;;;5083355;28;20440;-81
2022/07/19 08:43:51;;;;;;;1.10;1.00;;;27.70;43.20;;;;;;5077321;28;20203;-83
2022/07/19 08:46:21;;;;;;;3.03;1.57;;;27.70;37.70;;;;;;5083102;28;20466;-83
2022/07/19 08:48:51;;;;;;;1.40;1.30;;;27.80;36.30;;;;;;5081852;28;20992;-83
2022/07/19 08:51:21;;;;;;;2.57;1.60;;;27.90;38.10;;;;;;5086862;28;20505;-83
2022/07/19 08:53:50;;;;;;;1.40;1.30;;;27.90;37.10;;;;;;5083222;28;20948;-84
2022/07/19 08:59:06;;;;;;;1.93;1.33;;;28.10;39.70;;;;;;5086324;28;20901;-83
2022/07/19 09:01:34;;;;;;;1.70;1.30;;;28.20;40.20;;;;;;5079426;28;20485;-83
2022/07/19 09:04:10;;;;;;;1.57;1.43;;;28.10;38.80;;;;;;5085884;28;20462;-82
2022/07/19 09:06:45;;;;;;;1.40;1.30;;;28.20;38.40;;;;;;5080240;28;20461;-83
2022/07/19 09:09:15;;;;;;;2.80;1.20;;;28.30;39.10;;;;;;5088938;28;20456;-83
2022/07/19 09:11:51;;;;;;;2.03;1.60;;;28.30;39.80;;;;;;5082530;28;20445;-84
2022/07/19 09:14:22;;;;;;;2.43;1.40;;;28.40;39.80;;;;;;5080895;28;20854;-83
2022/07/19 09:17:02;;;;;;;3.17;1.70;;;28.40;39.00;;;;;;5078728;28;20448;-84
2022/07/19 09:19:37;;;;;;;1.40;1.30;;;28.40;38.10;;;;;;5082613;28;20481;-84
2022/07/19 09:22:06;;;;;;;1.50;1.40;;;28.40;41.00;;;;;;5083428;28;21050;-83
2022/07/19 09:24:37;;;;;;;2.90;1.77;;;28.40;42.10;;;;;;5084120;28;20473;-84
2022/07/19 09:27:08;;;;;;;1.60;1.50;;;28.50;39.00;;;;;;5091197;28;21173;-83
2022/07/19 09:29:38;;;;;;;1.90;1.30;;;28.50;40.40;;;;;;5087715;28;20433;-82
2022/07/19 09:32:09;;;;;;;1.63;1.53;;;28.60;40.00;;;;;;5084269;28;20453;-83
2022/07/19 09:34:41;;;;;;;2.50;1.70;;;28.60;40.10;;;;;;5086272;28;20543;-82
2022/07/19 09:37:17;;;;;;;2.17;1.30;;;28.60;39.50;;;;;;5089289;28;21214;-83
2022/07/19 09:39:47;;;;;;;1.83;1.60;;;28.70;41.00;;;;;;5088146;28;20469;-83
2022/07/19 09:42:18;;;;;;;1.40;1.30;;;28.80;43.20;;;;;;5084736;28;20469;-84
2022/07/19 09:44:46;;;;;;;2.10;1.47;;;29.00;45.10;;;;;;5089310;28;20493;-83
2022/07/19 09:47:30;;;;;;;2.03;1.60;;;29.00;45.20;;;;;;5090469;28;20545;-84
2022/07/19 09:50:00;;;;;;;1.57;1.47;;;29.00;44.60;;;;;;5088698;28;20453;-84
2022/07/19 09:52:28;;;;;;;1.80;1.70;;;29.00;43.60;;;;;;5089126;28;21215;-84
2022/07/19 09:55:07;;;;;;;1.53;1.43;;;29.10;43.70;;;;;;5086145;28;20470;-82
2022/07/19 09:57:37;;;;;;;1.70;1.60;;;29.10;45.30;;;;;;5087780;28;22570;-83
2022/07/19 10:00:07;;;;;;;1.97;1.77;;;29.20;44.90;;;;;;5087715;28;21243;-83
2022/07/19 10:02:38;;;;;;;1.50;1.40;;;29.20;43.00;;;;;;5085877;28;20454;-83
2022/07/19 10:05:09;;;;;;;3.00;1.40;;;29.30;57.00;;;;;;5082925;28;20481;-83
2022/07/19 10:07:37;;;;;;;2.03;1.80;;;29.30;44.20;;;;;;5088019;28;20450;-83
2022/07/19 10:10:10;;;;;;;2.17;1.40;;;29.40;45.40;;;;;;5088059;28;20454;-83
2022/07/19 10:12:38;;;;;;;1.93;1.77;;;29.40;46.60;;;;;;5087132;28;20472;-83
2022/07/19 10:15:09;;;;;;;1.80;1.70;;;29.40;65.30;;;;;;5084444;28;20477;-84
2022/07/19 10:17:40;;;;;;;1.93;1.60;;;29.40;47.70;;;;;;5080797;28;20809;-83
2022/07/19 10:20:10;;;;;;;3.00;1.67;;;29.50;50.90;;;;;;5085516;28;20482;-83
2022/07/19 10:22:40;;;;;;;2.20;1.80;;;29.60;50.60;;;;;;5082611;28;20499;-82
2022/07/19 10:25:13;;;;;;;4.97;2.10;;;29.70;51.40;;;;;;5082983;28;20473;-82
2022/07/19 10:27:43;;;;;;;4.43;2.33;;;29.80;49.80;;;;;;5084864;28;21895;-83
2022/07/19 10:30:26;;;;;;;2.80;2.47;;;29.90;50.40;;;;;;5078211;28;20454;-82
2022/07/19 10:32:57;;;;;;;2.17;1.97;;;29.90;47.50;;;;;;5079891;28;20462;-82
2022/07/19 10:35:30;;;;;;;2.00;1.80;;;29.80;48.40;;;;;;5077546;28;20477;-82
2022/07/19 10:38:10;;;;;;;2.97;2.33;;;29.90;48.40;;;;;;5078669;28;20544;-83
2022/07/19 10:40:43;;;;;;;2.43;1.60;;;29.90;50.10;;;;;;5077990;28;20481;-81
2022/07/19 10:43:12;;;;;;;3.10;1.80;;;29.90;47.20;;;;;;5086324;28;20454;-81
2022/07/19 10:45:42;;;;;;;2.10;1.77;;;29.90;45.10;;;;;;5080526;28;20484;-83
2022/07/19 10:48:15;;;;;;;3.30;1.87;;;29.90;45.30;;;;;;5085138;28;20442;-83
2022/07/19 10:50:56;;;;;;;4.60;2.23;;;30.00;44.00;;;;;;5080439;28;20450;-83
2022/07/19 10:53:55;;;;;;;2.27;1.97;;;30.00;43.90;;;;;;5083528;28;20493;-81
2022/07/19 10:56:27;;;;;;;1.80;1.70;;;30.00;45.10;;;;;;5077092;28;20512;-83
2022/07/19 10:58:58;;;;;;;1.90;1.80;;;30.10;46.50;;;;;;5086399;28;21285;-83
2022/07/19 11:01:28;;;;;;;2.00;1.53;;;30.10;46.40;;;;;;5091995;28;20481;-83
2022/07/19 11:04:25;;;;;;;1.73;1.63;;;30.20;48.00;;;;;;5087343;28;20549;-82
2022/07/19 11:07:13;;;;;;;1.70;1.60;;;30.20;46.80;;;;;;5077452;28;20552;-82
2022/07/19 11:09:44;;;;;;;1.93;1.73;;;30.30;46.00;;;;;;5082488;28;20443;-83
2022/07/19 11:12:34;;;;;;;2.30;2.00;;;30.30;47.20;;;;;;5084759;28;20488;-83
2022/07/19 11:15:06;;;;;;;4.40;1.77;;;30.40;50.10;;;;;;5083078;28;20562;-84
2022/07/19 11:17:55;;;;;;;3.67;2.40;;;30.50;50.40;;;;;;5084695;28;20450;-82
2022/07/19 11:20:26;;;;;;;2.00;1.80;;;30.50;51.10;;;;;;5086864;28;20830;-84
2022/07/19 11:22:56;;;;;;;2.13;2.00;;;30.50;50.70;;;;;;5086463;28;21035;-83
2022/07/19 11:25:27;;;;;;;2.33;2.13;;;30.50;50.50;;;;;;5086237;28;20577;-85
2022/07/19 11:27:55;;;;;;;2.80;1.83;;;30.60;49.90;;;;;;5084644;28;20469;-84
2022/07/19 11:30:24;;;;;;;2.90;2.00;;;30.60;52.90;;;;;;5083799;28;20503;-83
2022/07/19 11:32:54;;;;;;;2.30;1.57;;;30.60;49.00;;;;;;5077955;28;20580;-85
2022/07/19 11:35:24;;;;;;;3.67;2.07;;;30.70;49.90;;;;;;5076306;28;20491;-85
2022/07/19 11:37:54;;;;;;;1.90;1.80;;;30.70;47.50;;;;;;5084018;28;20445;-83
2022/07/19 11:40:24;;;;;;;1.80;1.70;;;30.70;46.50;;;;;;5080158;28;20467;-82
2022/07/19 11:42:52;;;;;;;3.47;1.57;;;30.70;46.50;;;;;;5081943;28;20509;-83
2022/07/19 11:45:45;;;;;;;2.00;1.90;;;30.70;49.70;;;;;;5081169;28;20558;-83
2022/07/19 11:48:25;;;;;;;1.73;1.60;;;30.70;47.30;;;;;;5080219;28;20949;-84
2022/07/19 11:51:07;;;;;;;2.67;1.97;;;30.70;47.40;;;;;;5099717;28;20882;-85
2022/07/19 11:53:37;;;;;;;2.07;1.90;;;30.60;45.50;;;;;;5085414;28;21055;-84
2022/07/19 11:56:16;;;;;;;1.57;1.47;;;30.70;46.10;;;;;;5081797;28;20485;-84
2022/07/19 11:58:44;;;;;;;2.80;2.00;;;30.70;48.90;;;;;;5086510;28;20536;-84
2022/07/19 12:01:14;;;;;;;2.10;1.97;;;30.90;51.00;;;;;;5083276;28;20517;-84
2022/07/19 12:03:53;;;;;;;3.00;2.23;;;30.80;47.50;;;;;;5080715;28;20449;-84
2022/07/19 12:06:36;;;;;;;2.50;2.17;;;30.80;46.90;;;;;;5085562;28;20465;-84
2022/07/19 12:09:06;;;;;;;2.10;2.00;;;30.80;46.30;;;;;;5085144;28;20445;-84
2022/07/19 12:11:41;;;;;;;4.17;2.30;;;30.80;47.30;;;;;;5083789;28;20434;-83
2022/07/19 12:14:20;;;;;;;2.20;1.63;;;30.80;46.50;;;;;;5082980;28;20842;-83
2022/07/19 12:16:49;;;;;;;1.80;1.67;;;30.80;46.00;;;;;;5082776;28;20472;-83
2022/07/19 12:19:19;;;;;;;2.00;1.90;;;30.90;48.00;;;;;;5081883;28;20552;-84
2022/07/19 12:21:49;;;;;;;2.60;2.40;;;30.90;47.50;;;;;;5082302;28;20480;-83
2022/07/19 12:24:22;;;;;;;2.97;1.90;;;30.90;51.90;;;;;;5080385;28;20450;-84
2022/07/19 12:27:02;;;;;;;2.43;2.17;;;30.90;59.70;;;;;;5078344;28;20552;-84
2022/07/19 12:29:32;;;;;;;3.93;2.63;;;31.00;46.10;;;;;;5079691;28;20481;-84
2022/07/19 12:32:02;;;;;;;2.73;2.20;;;30.90;45.70;;;;;;5085228;28;21329;-84
2022/07/19 12:34:41;;;;;;;2.10;2.00;;;31.00;47.70;;;;;;5084455;28;21329;-84
2022/07/19 12:37:22;;;;;;;4.10;2.17;;;31.00;48.00;;;;;;5086116;28;20460;-83
2022/07/19 12:40:02;;;;;;;6.00;2.77;;;31.10;48.20;;;;;;5084135;28;20447;-84
2022/07/19 12:42:43;;;;;;;2.50;2.30;;;31.10;47.10;;;;;;5084886;28;20482;-84
2022/07/19 12:45:13;;;;;;;2.10;1.90;;;31.10;47.40;;;;;;5089554;28;20469;-84
2022/07/19 12:47:41;;;;;;;1.80;1.67;;;31.10;49.00;;;;;;5089577;28;20461;-84
2022/07/19 12:50:18;;;;;;;2.67;1.73;;;31.20;51.50;;;;;;5091070;28;20461;-85
2022/07/19 12:52:48;;;;;;;2.73;1.93;;;31.20;51.00;;;;;;5083193;28;20456;-85
2022/07/19 12:55:16;;;;;;;1.87;1.77;;;31.30;53.50;;;;;;5084076;28;20470;-84
2022/07/19 12:57:48;;;;;;;2.27;2.07;;;31.30;52.20;;;;;;5080442;28;20446;-84
2022/07/19 13:00:16;;;;;;;3.53;2.30;;;31.40;50.60;;;;;;5085795;28;20966;-85
2022/07/19 13:02:47;;;;;;;2.30;2.10;;;31.40;50.40;;;;;;5087828;28;20475;-84
2022/07/19 13:05:15;;;;;;;2.20;2.10;;;31.40;49.90;;;;;;5074456;28;20474;-84